Terminal Aerodrome Forecast
Issued by NWS Springfield, MO

Home | Current Version | Previous Version | Text Only | Print | Product List | Glossary On
Versions: 1 2 3 4 5 6 7 8 9 10 11 12 13 14 15 16 17 18 19
000
FTUS43 KSGF 261351 AAB
TAFSGF
TAF AMD
KSGF 261351Z 2614/2712 VRB04KT 5SM -SHRA BR VCTS BKN007 OVC015CB
     FM261900 33012KT 5SM -SHRA BR OVC007
     FM270500 29006KT P6SM BKN008
     FM270900 28005KT P6SM SKC=

USA.gov is the U.S. government's official web portal to all federal, state and local government web resources and services.